sensor_id;sensor_type;location;lat;lon;timestamp;P1;durP1;ratioP1;P2;durP2;ratioP2
53287;SDS011;39172;45.550;12.072;2023-03-01T00:00:12;7.93;;;5.30;;
53287;SDS011;39172;45.550;12.072;2023-03-01T00:06:13;7.10;;;4.57;;
53287;SDS011;39172;45.550;12.072;2023-03-01T00:12:14;7.28;;;4.55;;
53287;SDS011;39172;45.550;12.072;2023-03-01T00:18:15;10.38;;;6.32;;
53287;SDS011;39172;45.550;12.072;2023-03-01T00:24:16;7.15;;;4.40;;
53287;SDS011;39172;45.550;12.072;2023-03-01T00:30:17;6.93;;;4.53;;
53287;SDS011;39172;45.550;12.072;2023-03-01T00:36:18;8.00;;;5.22;;
53287;SDS011;39172;45.550;12.072;2023-03-01T00:42:19;10.48;;;6.75;;
53287;SDS011;39172;45.550;12.072;2023-03-01T00:48:20;11.30;;;7.07;;
53287;SDS011;39172;45.550;12.072;2023-03-01T00:54:20;11.80;;;7.15;;
53287;SDS011;39172;45.550;12.072;2023-03-01T01:00:21;11.95;;;6.90;;
53287;SDS011;39172;45.550;12.072;2023-03-01T01:06:27;11.73;;;7.00;;
53287;SDS011;39172;45.550;12.072;2023-03-01T01:12:28;11.05;;;6.90;;
53287;SDS011;39172;45.550;12.072;2023-03-01T01:18:29;11.05;;;6.65;;
53287;SDS011;39172;45.550;12.072;2023-03-01T01:24:30;12.85;;;7.43;;
53287;SDS011;39172;45.550;12.072;2023-03-01T01:30:31;12.23;;;6.90;;
53287;SDS011;39172;45.550;12.072;2023-03-01T01:36:32;11.45;;;7.00;;
53287;SDS011;39172;45.550;12.072;2023-03-01T01:42:33;10.55;;;6.53;;
53287;SDS011;39172;45.550;12.072;2023-03-01T01:48:39;9.40;;;5.97;;
53287;SDS011;39172;45.550;12.072;2023-03-01T01:54:45;9.95;;;6.32;;
53287;SDS011;39172;45.550;12.072;2023-03-01T02:00:47;9.88;;;6.32;;
53287;SDS011;39172;45.550;12.072;2023-03-01T02:06:54;11.20;;;6.47;;
53287;SDS011;39172;45.550;12.072;2023-03-01T02:12:57;8.93;;;6.15;;
53287;SDS011;39172;45.550;12.072;2023-03-01T02:18:58;10.30;;;6.40;;
53287;SDS011;39172;45.550;12.072;2023-03-01T02:25:08;10.25;;;6.50;;
53287;SDS011;39172;45.550;12.072;2023-03-01T02:31:14;11.40;;;6.63;;
53287;SDS011;39172;45.550;12.072;2023-03-01T02:37:35;10.10;;;6.20;;
53287;SDS011;39172;45.550;12.072;2023-03-01T02:43:36;10.30;;;6.80;;
53287;SDS011;39172;45.550;12.072;2023-03-01T02:49:38;9.85;;;6.43;;
53287;SDS011;39172;45.550;12.072;2023-03-01T02:55:39;10.65;;;6.32;;
53287;SDS011;39172;45.550;12.072;2023-03-01T03:01:41;10.02;;;5.93;;
53287;SDS011;39172;45.550;12.072;2023-03-01T03:07:43;9.50;;;5.65;;
53287;SDS011;39172;45.550;12.072;2023-03-01T03:13:45;9.32;;;5.72;;
53287;SDS011;39172;45.550;12.072;2023-03-01T03:19:49;7.95;;;5.10;;
53287;SDS011;39172;45.550;12.072;2023-03-01T03:25:50;7.88;;;5.05;;
53287;SDS011;39172;45.550;12.072;2023-03-01T03:31:51;7.68;;;5.25;;
53287;SDS011;39172;45.550;12.072;2023-03-01T03:37:52;8.13;;;4.95;;
53287;SDS011;39172;45.550;12.072;2023-03-01T03:44:06;8.07;;;5.18;;
53287;SDS011;39172;45.550;12.072;2023-03-01T03:50:07;8.68;;;5.47;;
53287;SDS011;39172;45.550;12.072;2023-03-01T03:56:09;8.00;;;5.20;;
53287;SDS011;39172;45.550;12.072;2023-03-01T04:02:09;8.75;;;5.32;;
53287;SDS011;39172;45.550;12.072;2023-03-01T04:08:10;7.78;;;4.90;;
53287;SDS011;39172;45.550;12.072;2023-03-01T04:14:11;8.32;;;5.32;;
53287;SDS011;39172;45.550;12.072;2023-03-01T04:20:16;7.43;;;5.05;;
53287;SDS011;39172;45.550;12.072;2023-03-01T04:26:26;7.03;;;4.85;;
53287;SDS011;39172;45.550;12.072;2023-03-01T04:32:27;7.82;;;4.90;;
53287;SDS011;39172;45.550;12.072;2023-03-01T04:38:28;7.90;;;5.18;;
53287;SDS011;39172;45.550;12.072;2023-03-01T04:44:29;7.25;;;4.38;;
53287;SDS011;39172;45.550;12.072;2023-03-01T04:50:30;7.93;;;5.28;;
53287;SDS011;39172;45.550;12.072;2023-03-01T04:56:31;7.75;;;4.85;;
53287;SDS011;39172;45.550;12.072;2023-03-01T05:02:32;8.57;;;5.45;;
53287;SDS011;39172;45.550;12.072;2023-03-01T05:08:33;7.78;;;4.82;;
53287;SDS011;39172;45.550;12.072;2023-03-01T05:14:34;7.13;;;4.72;;
53287;SDS011;39172;45.550;12.072;2023-03-01T05:20:35;8.85;;;5.55;;
53287;SDS011;39172;45.550;12.072;2023-03-01T05:26:37;8.52;;;5.30;;
53287;SDS011;39172;45.550;12.072;2023-03-01T05:32:41;9.23;;;5.20;;
53287;SDS011;39172;45.550;12.072;2023-03-01T05:38:43;7.22;;;4.95;;
53287;SDS011;39172;45.550;12.072;2023-03-01T05:44:44;7.85;;;4.82;;
53287;SDS011;39172;45.550;12.072;2023-03-01T05:50:45;7.00;;;4.55;;
53287;SDS011;39172;45.550;12.072;2023-03-01T05:56:48;7.05;;;4.45;;
53287;SDS011;39172;45.550;12.072;2023-03-01T06:02:49;7.78;;;5.07;;
53287;SDS011;39172;45.550;12.072;2023-03-01T06:08:50;7.10;;;4.50;;
53287;SDS011;39172;45.550;12.072;2023-03-01T06:14:51;7.60;;;4.80;;
53287;SDS011;39172;45.550;12.072;2023-03-01T06:20:52;8.02;;;5.20;;
53287;SDS011;39172;45.550;12.072;2023-03-01T06:26:53;6.88;;;4.60;;
53287;SDS011;39172;45.550;12.072;2023-03-01T06:32:54;7.90;;;4.72;;
53287;SDS011;39172;45.550;12.072;2023-03-01T06:39:01;8.23;;;4.85;;
53287;SDS011;39172;45.550;12.072;2023-03-01T06:45:02;7.35;;;4.40;;
53287;SDS011;39172;45.550;12.072;2023-03-01T06:51:03;7.20;;;4.72;;
53287;SDS011;39172;45.550;12.072;2023-03-01T06:57:04;6.85;;;4.50;;
53287;SDS011;39172;45.550;12.072;2023-03-01T07:03:05;7.40;;;4.38;;
53287;SDS011;39172;45.550;12.072;2023-03-01T07:09:06;7.60;;;4.57;;
53287;SDS011;39172;45.550;12.072;2023-03-01T07:15:08;8.27;;;4.57;;
53287;SDS011;39172;45.550;12.072;2023-03-01T07:21:11;6.85;;;4.30;;
53287;SDS011;39172;45.550;12.072;2023-03-01T07:27:12;7.97;;;5.00;;
53287;SDS011;39172;45.550;12.072;2023-03-01T07:33:13;7.82;;;5.15;;
53287;SDS011;39172;45.550;12.072;2023-03-01T07:39:14;7.72;;;4.70;;
53287;SDS011;39172;45.550;12.072;2023-03-01T07:45:15;8.23;;;4.63;;
53287;SDS011;39172;45.550;12.072;2023-03-01T07:51:16;8.02;;;4.57;;
53287;SDS011;39172;45.550;12.072;2023-03-01T07:57:17;7.07;;;4.35;;
53287;SDS011;39172;45.550;12.072;2023-03-01T08:03:17;7.20;;;4.65;;
53287;SDS011;39172;45.550;12.072;2023-03-01T08:09:18;7.65;;;4.53;;
53287;SDS011;39172;45.550;12.072;2023-03-01T08:15:20;7.20;;;4.80;;
53287;SDS011;39172;45.550;12.072;2023-03-01T08:21:20;7.63;;;5.03;;
53287;SDS011;39172;45.550;12.072;2023-03-01T08:27:21;7.40;;;4.40;;
53287;SDS011;39172;45.550;12.072;2023-03-01T08:33:22;6.93;;;4.25;;
53287;SDS011;39172;45.550;12.072;2023-03-01T08:39:23;7.72;;;4.85;;
53287;SDS011;39172;45.550;12.072;2023-03-01T08:45:24;7.28;;;4.10;;
53287;SDS011;39172;45.550;12.072;2023-03-01T08:51:25;5.70;;;3.65;;
53287;SDS011;39172;45.550;12.072;2023-03-01T08:57:26;7.20;;;3.95;;
53287;SDS011;39172;45.550;12.072;2023-03-01T09:03:27;6.47;;;3.75;;
53287;SDS011;39172;45.550;12.072;2023-03-01T09:09:28;8.18;;;4.70;;
53287;SDS011;39172;45.550;12.072;2023-03-01T09:15:29;9.93;;;3.78;;
53287;SDS011;39172;45.550;12.072;2023-03-01T09:21:30;6.57;;;3.75;;
53287;SDS011;39172;45.550;12.072;2023-03-01T09:27:30;9.05;;;4.32;;
53287;SDS011;39172;45.550;12.072;2023-03-01T09:33:32;5.97;;;3.70;;
53287;SDS011;39172;45.550;12.072;2023-03-01T09:39:33;6.70;;;3.20;;
53287;SDS011;39172;45.550;12.072;2023-03-01T09:45:35;8.32;;;3.67;;
53287;SDS011;39172;45.550;12.072;2023-03-01T09:51:36;5.45;;;3.33;;
53287;SDS011;39172;45.550;12.072;2023-03-01T10:03:57;6.28;;;3.53;;
53287;SDS011;39172;45.550;12.072;2023-03-01T10:10:01;8.02;;;3.97;;
53287;SDS011;39172;45.550;12.072;2023-03-01T10:16:12;7.90;;;3.92;;
53287;SDS011;39172;45.550;12.072;2023-03-01T10:34:18;5.50;;;3.30;;
53287;SDS011;39172;45.550;12.072;2023-03-01T10:40:19;8.23;;;3.58;;
53287;SDS011;39172;45.550;12.072;2023-03-01T10:46:35;9.90;;;3.15;;
53287;SDS011;39172;45.550;12.072;2023-03-01T10:52:37;6.57;;;3.42;;
53287;SDS011;39172;45.550;12.072;2023-03-01T10:58:41;5.43;;;2.70;;
53287;SDS011;39172;45.550;12.072;2023-03-01T11:04:58;9.57;;;3.10;;
53287;SDS011;39172;45.550;12.072;2023-03-01T11:11:19;7.78;;;3.30;;
53287;SDS011;39172;45.550;12.072;2023-03-01T11:17:23;6.53;;;3.20;;
53287;SDS011;39172;45.550;12.072;2023-03-01T11:23:24;9.82;;;3.75;;
53287;SDS011;39172;45.550;12.072;2023-03-01T11:35:27;8.18;;;3.40;;
53287;SDS011;39172;45.550;12.072;2023-03-01T11:41:30;9.65;;;3.70;;
53287;SDS011;39172;45.550;12.072;2023-03-01T12:25:16;8.00;;;3.92;;
53287;SDS011;39172;45.550;12.072;2023-03-01T12:56:02;8.27;;;3.42;;
53287;SDS011;39172;45.550;12.072;2023-03-01T13:08:39;5.40;;;3.20;;
53287;SDS011;39172;45.550;12.072;2023-03-01T13:14:45;5.72;;;3.05;;
53287;SDS011;39172;45.550;12.072;2023-03-01T13:20:48;6.50;;;3.45;;
53287;SDS011;39172;45.550;12.072;2023-03-01T13:45:49;5.85;;;3.40;;
53287;SDS011;39172;45.550;12.072;2023-03-01T13:51:49;5.50;;;3.15;;
53287;SDS011;39172;45.550;12.072;2023-03-01T13:57:53;5.00;;;3.20;;
53287;SDS011;39172;45.550;12.072;2023-03-01T14:03:56;5.75;;;3.40;;
53287;SDS011;39172;45.550;12.072;2023-03-01T14:10:01;4.80;;;3.00;;
53287;SDS011;39172;45.550;12.072;2023-03-01T14:34:19;6.15;;;3.50;;
53287;SDS011;39172;45.550;12.072;2023-03-01T14:40:27;6.25;;;3.08;;
53287;SDS011;39172;45.550;12.072;2023-03-01T14:52:34;5.18;;;3.17;;
53287;SDS011;39172;45.550;12.072;2023-03-01T14:58:37;4.05;;;2.53;;
53287;SDS011;39172;45.550;12.072;2023-03-01T15:04:38;4.07;;;2.60;;
53287;SDS011;39172;45.550;12.072;2023-03-01T15:10:40;3.80;;;2.58;;
53287;SDS011;39172;45.550;12.072;2023-03-01T15:16:44;5.95;;;2.55;;
53287;SDS011;39172;45.550;12.072;2023-03-01T15:22:45;4.82;;;2.35;;
53287;SDS011;39172;45.550;12.072;2023-03-01T15:28:49;5.28;;;2.40;;
53287;SDS011;39172;45.550;12.072;2023-03-01T15:34:51;4.45;;;2.33;;
53287;SDS011;39172;45.550;12.072;2023-03-01T15:40:52;4.13;;;2.40;;
53287;SDS011;39172;45.550;12.072;2023-03-01T15:46:52;3.20;;;2.20;;
53287;SDS011;39172;45.550;12.072;2023-03-01T15:52:54;3.25;;;2.20;;
53287;SDS011;39172;45.550;12.072;2023-03-01T15:58:58;5.32;;;3.05;;
53287;SDS011;39172;45.550;12.072;2023-03-01T16:05:00;5.28;;;2.95;;
53287;SDS011;39172;45.550;12.072;2023-03-01T16:11:00;3.92;;;2.80;;
53287;SDS011;39172;45.550;12.072;2023-03-01T16:17:05;4.75;;;3.13;;
53287;SDS011;39172;45.550;12.072;2023-03-01T16:23:07;6.93;;;3.38;;
53287;SDS011;39172;45.550;12.072;2023-03-01T16:29:08;4.93;;;2.65;;
53287;SDS011;39172;45.550;12.072;2023-03-01T16:35:10;4.03;;;2.65;;
53287;SDS011;39172;45.550;12.072;2023-03-01T16:41:12;4.70;;;2.53;;
53287;SDS011;39172;45.550;12.072;2023-03-01T16:47:13;3.65;;;2.45;;
53287;SDS011;39172;45.550;12.072;2023-03-01T16:53:14;3.70;;;2.25;;
53287;SDS011;39172;45.550;12.072;2023-03-01T16:59:15;4.50;;;2.50;;
53287;SDS011;39172;45.550;12.072;2023-03-01T17:05:16;3.38;;;2.53;;
53287;SDS011;39172;45.550;12.072;2023-03-01T17:11:18;4.95;;;2.85;;
53287;SDS011;39172;45.550;12.072;2023-03-01T17:17:19;5.75;;;2.80;;
53287;SDS011;39172;45.550;12.072;2023-03-01T17:23:20;4.93;;;3.00;;
53287;SDS011;39172;45.550;12.072;2023-03-01T17:29:21;4.90;;;2.97;;
53287;SDS011;39172;45.550;12.072;2023-03-01T17:35:22;4.68;;;2.88;;
53287;SDS011;39172;45.550;12.072;2023-03-01T17:41:23;4.07;;;3.05;;
53287;SDS011;39172;45.550;12.072;2023-03-01T17:47:24;4.78;;;2.53;;
53287;SDS011;39172;45.550;12.072;2023-03-01T17:53:25;6.70;;;2.80;;
53287;SDS011;39172;45.550;12.072;2023-03-01T17:59:26;3.83;;;2.63;;
53287;SDS011;39172;45.550;12.072;2023-03-01T18:05:33;4.53;;;2.70;;
53287;SDS011;39172;45.550;12.072;2023-03-01T18:11:34;4.38;;;3.05;;
53287;SDS011;39172;45.550;12.072;2023-03-01T18:17:35;4.43;;;2.90;;
53287;SDS011;39172;45.550;12.072;2023-03-01T18:23:36;4.60;;;2.90;;
53287;SDS011;39172;45.550;12.072;2023-03-01T18:29:37;4.65;;;3.05;;
53287;SDS011;39172;45.550;12.072;2023-03-01T18:35:38;4.32;;;2.90;;
53287;SDS011;39172;45.550;12.072;2023-03-01T18:41:39;4.18;;;2.60;;
53287;SDS011;39172;45.550;12.072;2023-03-01T18:47:40;5.30;;;2.90;;
53287;SDS011;39172;45.550;12.072;2023-03-01T18:53:41;4.18;;;2.92;;
53287;SDS011;39172;45.550;12.072;2023-03-01T18:59:42;5.32;;;3.08;;
53287;SDS011;39172;45.550;12.072;2023-03-01T19:05:43;4.70;;;3.17;;
53287;SDS011;39172;45.550;12.072;2023-03-01T19:11:44;5.25;;;3.45;;
53287;SDS011;39172;45.550;12.072;2023-03-01T19:17:45;5.15;;;3.53;;
53287;SDS011;39172;45.550;12.072;2023-03-01T19:23:46;4.70;;;3.13;;
53287;SDS011;39172;45.550;12.072;2023-03-01T19:29:48;4.60;;;2.90;;
53287;SDS011;39172;45.550;12.072;2023-03-01T19:35:49;4.57;;;2.67;;
53287;SDS011;39172;45.550;12.072;2023-03-01T19:41:50;4.50;;;2.70;;
53287;SDS011;39172;45.550;12.072;2023-03-01T19:47:52;6.50;;;2.67;;
53287;SDS011;39172;45.550;12.072;2023-03-01T19:53:53;4.88;;;2.67;;
53287;SDS011;39172;45.550;12.072;2023-03-01T19:59:53;3.28;;;2.20;;
53287;SDS011;39172;45.550;12.072;2023-03-01T20:05:54;4.97;;;1.88;;
53287;SDS011;39172;45.550;12.072;2023-03-01T20:11:56;2.33;;;1.55;;
53287;SDS011;39172;45.550;12.072;2023-03-01T20:17:57;3.10;;;1.88;;
53287;SDS011;39172;45.550;12.072;2023-03-01T20:23:58;3.20;;;1.90;;
53287;SDS011;39172;45.550;12.072;2023-03-01T20:29:59;4.13;;;2.40;;
53287;SDS011;39172;45.550;12.072;2023-03-01T20:36:00;4.75;;;2.42;;
53287;SDS011;39172;45.550;12.072;2023-03-01T20:42:01;3.80;;;2.60;;
53287;SDS011;39172;45.550;12.072;2023-03-01T20:48:02;5.05;;;3.17;;
53287;SDS011;39172;45.550;12.072;2023-03-01T20:54:03;5.03;;;3.40;;
53287;SDS011;39172;45.550;12.072;2023-03-01T21:00:04;5.72;;;3.13;;
53287;SDS011;39172;45.550;12.072;2023-03-01T21:06:06;4.45;;;2.80;;
53287;SDS011;39172;45.550;12.072;2023-03-01T21:12:06;4.40;;;2.63;;
53287;SDS011;39172;45.550;12.072;2023-03-01T21:18:07;5.50;;;3.17;;
53287;SDS011;39172;45.550;12.072;2023-03-01T21:24:09;4.40;;;3.00;;
53287;SDS011;39172;45.550;12.072;2023-03-01T21:30:11;5.30;;;2.70;;
53287;SDS011;39172;45.550;12.072;2023-03-01T21:36:12;6.15;;;3.58;;
53287;SDS011;39172;45.550;12.072;2023-03-01T21:42:13;4.00;;;2.90;;
53287;SDS011;39172;45.550;12.072;2023-03-01T21:48:14;4.28;;;2.90;;
53287;SDS011;39172;45.550;12.072;2023-03-01T21:54:16;4.35;;;2.70;;
53287;SDS011;39172;45.550;12.072;2023-03-01T22:00:18;4.25;;;2.72;;
53287;SDS011;39172;45.550;12.072;2023-03-01T22:06:24;3.85;;;2.85;;
53287;SDS011;39172;45.550;12.072;2023-03-01T22:12:28;4.50;;;2.67;;
53287;SDS011;39172;45.550;12.072;2023-03-01T22:18:29;4.40;;;2.75;;
53287;SDS011;39172;45.550;12.072;2023-03-01T22:24:30;3.85;;;2.80;;
53287;SDS011;39172;45.550;12.072;2023-03-01T22:30:31;3.53;;;2.40;;
53287;SDS011;39172;45.550;12.072;2023-03-01T22:36:32;3.85;;;2.58;;
53287;SDS011;39172;45.550;12.072;2023-03-01T22:42:33;3.10;;;2.47;;
53287;SDS011;39172;45.550;12.072;2023-03-01T22:48:34;4.15;;;2.80;;
53287;SDS011;39172;45.550;12.072;2023-03-01T22:54:34;5.07;;;3.17;;
53287;SDS011;39172;45.550;12.072;2023-03-01T23:00:35;5.30;;;3.58;;
53287;SDS011;39172;45.550;12.072;2023-03-01T23:06:36;4.82;;;3.30;;
53287;SDS011;39172;45.550;12.072;2023-03-01T23:12:52;3.90;;;2.70;;
53287;SDS011;39172;45.550;12.072;2023-03-01T23:18:55;3.92;;;2.90;;
53287;SDS011;39172;45.550;12.072;2023-03-01T23:24:58;4.55;;;3.00;;
53287;SDS011;39172;45.550;12.072;2023-03-01T23:31:00;3.67;;;2.55;;
53287;SDS011;39172;45.550;12.072;2023-03-01T23:37:02;3.97;;;2.65;;
53287;SDS011;39172;45.550;12.072;2023-03-01T23:43:03;3.17;;;2.22;;
53287;SDS011;39172;45.550;12.072;2023-03-01T23:49:04;3.35;;;2.40;;
53287;SDS011;39172;45.550;12.072;2023-03-01T23:55:05;4.55;;;2.40;;
